createdAt,value
2022-08-01T00:00:50.488Z,14.83
2022-08-01T00:01:50.563Z,14.74
2022-08-01T00:02:50.540Z,14.67
2022-08-01T00:03:50.488Z,14.69
2022-08-01T00:04:50.474Z,14.78
2022-08-01T00:05:50.460Z,14.85
2022-08-01T00:06:50.482Z,14.86
2022-08-01T00:07:50.459Z,14.86
2022-08-01T00:08:50.461Z,15.09
2022-08-01T00:09:50.473Z,15.09
2022-08-01T00:10:50.478Z,15.21
2022-08-01T00:11:59.466Z,15.22
2022-08-01T00:12:50.473Z,15.15
2022-08-01T00:13:50.468Z,15.06
2022-08-01T00:14:50.484Z,14.95
2022-08-01T00:15:53.960Z,14.9
2022-08-01T00:16:50.481Z,14.87
2022-08-01T00:17:50.477Z,14.84
2022-08-01T00:18:50.475Z,14.81
2022-08-01T00:19:50.472Z,14.75
2022-08-01T00:20:50.483Z,14.76
2022-08-01T00:22:02.164Z,14.68
2022-08-01T00:22:50.471Z,14.65
2022-08-01T00:23:50.471Z,14.72
2022-08-01T00:24:50.473Z,14.62
2022-08-01T00:25:50.472Z,14.41
2022-08-01T00:26:50.481Z,14.38
2022-08-01T00:27:50.467Z,14.33
2022-08-01T00:28:50.479Z,14.36
2022-08-01T00:30:11.698Z,14.38
2022-08-01T00:30:50.462Z,14.39
2022-08-01T00:31:50.476Z,14.44
2022-08-01T00:32:50.470Z,14.43
2022-08-01T00:33:50.463Z,14.45
2022-08-01T00:34:50.489Z,14.52
2022-08-01T00:35:50.464Z,14.42
2022-08-01T00:36:50.487Z,14.42
2022-08-01T00:37:50.465Z,14.43
2022-08-01T00:38:50.468Z,14.44
2022-08-01T00:39:50.472Z,14.48
2022-08-01T00:40:50.465Z,14.58
2022-08-01T00:41:50.471Z,14.65
2022-08-01T00:42:50.466Z,14.67
2022-08-01T00:43:50.472Z,14.76
2022-08-01T00:44:50.488Z,14.72
2022-08-01T00:45:50.465Z,14.74
2022-08-01T00:46:50.478Z,14.64
2022-08-01T00:47:54.939Z,14.45
2022-08-01T00:48:50.514Z,14.45
2022-08-01T00:49:50.460Z,14.49
2022-08-01T00:50:50.461Z,14.52
2022-08-01T00:51:50.478Z,14.57
2022-08-01T00:52:51.678Z,14.65
2022-08-01T00:53:51.268Z,14.76
2022-08-01T00:54:50.468Z,14.72
2022-08-01T00:55:50.469Z,14.63
2022-08-01T00:56:50.487Z,14.53
2022-08-01T00:58:04.655Z,14.51
2022-08-01T00:58:50.509Z,14.53
2022-08-01T00:59:50.475Z,14.56
2022-08-01T01:00:53.756Z,14.58
2022-08-01T01:01:50.530Z,14.57
2022-08-01T01:02:50.463Z,14.57
2022-08-01T01:03:59.062Z,14.62
2022-08-01T01:04:50.461Z,14.61
2022-08-01T01:05:50.463Z,14.58
2022-08-01T01:06:50.483Z,14.56
2022-08-01T01:07:50.466Z,14.58
2022-08-01T01:08:50.461Z,14.49
2022-08-01T01:09:50.473Z,14.5
2022-08-01T01:10:50.471Z,14.5
2022-08-01T01:11:50.489Z,14.46
2022-08-01T01:12:50.516Z,14.47
2022-08-01T01:13:51.074Z,14.39
2022-08-01T01:14:50.488Z,14.37
2022-08-01T01:15:50.477Z,14.37
2022-08-01T01:16:50.501Z,14.48
2022-08-01T01:17:51.871Z,14.47
2022-08-01T01:18:50.474Z,14.37
2022-08-01T01:19:50.457Z,14.47
2022-08-01T01:20:50.459Z,14.49
2022-08-01T01:21:50.466Z,14.57
2022-08-01T01:22:50.471Z,14.54
2022-08-01T01:23:50.506Z,16.01
2022-08-01T01:24:50.448Z,14.6
2022-08-01T01:25:50.449Z,14.67
2022-08-01T01:26:50.489Z,14.78
2022-08-01T01:27:50.468Z,14.77
2022-08-01T01:28:50.468Z,14.81
2022-08-01T01:29:58.559Z,14.73
2022-08-01T01:30:50.472Z,14.59
2022-08-01T01:31:50.480Z,14.49
2022-08-01T01:32:50.473Z,14.46
2022-08-01T01:33:50.463Z,14.49
2022-08-01T01:34:50.467Z,14.48
2022-08-01T01:35:50.463Z,14.47
2022-08-01T01:36:50.477Z,14.58
2022-08-01T01:37:50.460Z,14.91
2022-08-01T01:38:50.469Z,14.88
2022-08-01T01:39:54.300Z,15.24
2022-08-01T01:40:50.457Z,15.22
2022-08-01T01:41:50.484Z,15.11
2022-08-01T01:42:50.458Z,15.08
2022-08-01T01:43:50.476Z,15.07
2022-08-01T01:44:50.477Z,15.09
2022-08-01T01:45:50.534Z,15.1
2022-08-01T01:46:50.476Z,15.09
2022-08-01T01:47:50.468Z,15.19
2022-08-01T01:48:50.549Z,15.11
2022-08-01T01:49:50.482Z,15.05
2022-08-01T01:50:50.487Z,15.02
2022-08-01T01:52:03.628Z,15.03
2022-08-01T01:52:50.478Z,15.14
2022-08-01T01:53:50.474Z,15.05
2022-08-01T01:54:50.479Z,15.03
2022-08-01T01:55:50.487Z,15.14
2022-08-01T01:56:50.479Z,15.18
2022-08-01T01:57:50.467Z,15.04
2022-08-01T01:58:50.456Z,15.14
2022-08-01T01:59:50.468Z,15.23
2022-08-01T02:00:50.568Z,15.16
2022-08-01T02:02:05.095Z,15
2022-08-01T02:02:50.506Z,14.81
2022-08-01T02:03:50.453Z,15.97
2022-08-01T02:04:50.483Z,14.59
2022-08-01T02:05:50.486Z,14.7
2022-08-01T02:06:50.492Z,14.8
2022-08-01T02:07:50.465Z,14.85
2022-08-01T02:08:50.465Z,14.79
2022-08-01T02:09:50.472Z,14.78
2022-08-01T02:10:50.472Z,14.76
2022-08-01T02:12:08.013Z,14.81
2022-08-01T02:12:50.475Z,14.84
2022-08-01T02:13:50.469Z,14.79
2022-08-01T02:14:50.477Z,14.85
2022-08-01T02:15:59.943Z,14.91
2022-08-01T02:16:50.480Z,15.02
2022-08-01T02:17:50.464Z,15.04
2022-08-01T02:18:50.468Z,15.04
2022-08-01T02:19:50.468Z,15.04
2022-08-01T02:20:50.458Z,14.89
2022-08-01T02:21:50.483Z,14.83
2022-08-01T02:22:50.468Z,14.94
2022-08-01T02:23:50.473Z,14.89
2022-08-01T02:24:50.464Z,14.99
2022-08-01T02:26:10.519Z,14.98
2022-08-01T02:26:50.476Z,14.87
2022-08-01T02:27:50.462Z,14.82
2022-08-01T02:28:50.468Z,14.82
2022-08-01T02:29:50.476Z,14.78
2022-08-01T02:30:50.476Z,14.73
2022-08-01T02:31:50.483Z,14.73
2022-08-01T02:32:50.462Z,14.69
2022-08-01T02:33:50.463Z,14.65
2022-08-01T02:34:50.472Z,14.65
2022-08-01T02:36:30.781Z,14.64
2022-08-01T02:36:50.489Z,14.63
2022-08-01T02:37:50.466Z,14.59
2022-08-01T02:38:50.481Z,14.58
2022-08-01T02:39:50.473Z,14.56
2022-08-01T02:40:50.472Z,14.52
2022-08-01T02:41:50.482Z,14.46
2022-08-01T02:42:50.473Z,14.49
2022-08-01T02:43:53.145Z,14.51
2022-08-01T02:44:50.493Z,14.5
2022-08-01T02:45:50.473Z,14.51
2022-08-01T02:46:50.492Z,14.5
2022-08-01T02:47:50.472Z,14.48
2022-08-01T02:48:50.545Z,14.48
2022-08-01T02:49:53.589Z,14.43
2022-08-01T02:50:50.478Z,14.41
2022-08-01T02:51:50.500Z,14.4
2022-08-01T02:52:50.466Z,14.4
2022-08-01T02:53:50.468Z,14.41
2022-08-01T02:54:50.473Z,14.4
2022-08-01T02:55:50.468Z,14.4
2022-08-01T02:56:50.490Z,14.39
2022-08-01T02:57:52.141Z,14.39
2022-08-01T02:58:50.496Z,14.38
2022-08-01T02:59:50.488Z,14.4
2022-08-01T03:00:50.472Z,14.42
2022-08-01T03:01:50.582Z,14.46
2022-08-01T03:02:50.476Z,14.49
2022-08-01T03:03:50.481Z,14.48
2022-08-01T03:04:53.938Z,14.44
2022-08-01T03:05:50.473Z,14.47
2022-08-01T03:06:50.497Z,14.48
2022-08-01T03:07:50.476Z,14.48
2022-08-01T03:08:50.464Z,14.45
2022-08-01T03:09:50.477Z,14.45
2022-08-01T03:10:50.497Z,14.44
2022-08-01T03:11:50.488Z,14.44
2022-08-01T03:12:50.480Z,14.44
2022-08-01T03:13:50.481Z,14.47
2022-08-01T03:14:50.489Z,14.53
2022-08-01T03:15:50.467Z,14.57
2022-08-01T03:16:50.484Z,14.52
2022-08-01T03:17:50.483Z,14.52
2022-08-01T03:18:50.480Z,14.5
2022-08-01T03:19:50.470Z,14.52
2022-08-01T03:20:50.476Z,14.52
2022-08-01T03:21:50.498Z,14.55
2022-08-01T03:22:50.487Z,14.69
2022-08-01T03:23:54.754Z,14.71
2022-08-01T03:24:50.999Z,14.74
2022-08-01T03:25:50.477Z,14.74
2022-08-01T03:26:50.495Z,14.76
2022-08-01T03:27:50.478Z,14.76
2022-08-01T03:28:50.480Z,14.75
2022-08-01T03:29:50.493Z,14.59
2022-08-01T03:30:50.468Z,14.58
2022-08-01T03:31:50.495Z,14.56
2022-08-01T03:32:50.479Z,14.6
2022-08-01T03:33:50.483Z,14.62
2022-08-01T03:34:50.474Z,14.71
2022-08-01T03:35:50.483Z,14.63
2022-08-01T03:36:50.495Z,14.63
2022-08-01T03:38:14.871Z,14.67
2022-08-01T03:38:50.486Z,14.68
2022-08-01T03:39:50.521Z,14.61
2022-08-01T03:40:50.488Z,14.61
2022-08-01T03:41:54.857Z,14.66
2022-08-01T03:42:50.491Z,14.82
2022-08-01T03:43:50.500Z,14.76
2022-08-01T03:44:50.528Z,14.74
2022-08-01T03:45:50.497Z,14.68
2022-08-01T03:46:50.517Z,14.71
2022-08-01T03:47:52.067Z,14.71
2022-08-01T03:48:50.518Z,14.65
2022-08-01T03:49:50.479Z,14.63
2022-08-01T03:50:50.468Z,14.65
2022-08-01T03:51:50.547Z,14.56
2022-08-01T03:52:50.476Z,14.58
2022-08-01T03:53:50.477Z,14.65
2022-08-01T03:54:50.515Z,14.67
2022-08-01T03:55:50.476Z,14.71
2022-08-01T03:56:50.513Z,14.73
2022-08-01T03:57:50.491Z,14.74
2022-08-01T03:58:50.564Z,14.69
2022-08-01T03:59:50.491Z,14.69
2022-08-01T04:00:50.478Z,14.75
2022-08-01T04:01:50.527Z,14.73
2022-08-01T04:02:50.476Z,14.76
2022-08-01T04:03:50.482Z,14.75
2022-08-01T04:04:50.475Z,14.77
2022-08-01T04:05:50.474Z,14.81
2022-08-01T04:06:50.482Z,14.86
2022-08-01T04:07:50.479Z,14.89
2022-08-01T04:08:50.475Z,14.92
2022-08-01T04:09:50.488Z,14.84
2022-08-01T04:10:50.558Z,14.79
2022-08-01T04:11:50.499Z,14.79
2022-08-01T04:12:50.475Z,14.8
2022-08-01T04:13:50.473Z,14.71
2022-08-01T04:14:50.493Z,14.68
2022-08-01T04:15:50.478Z,14.7
2022-08-01T04:16:50.485Z,14.77
2022-08-01T04:17:50.474Z,14.72
2022-08-01T04:18:50.465Z,14.75
2022-08-01T04:19:50.467Z,14.74
2022-08-01T04:20:50.473Z,15.79
2022-08-01T04:21:50.494Z,14.72
2022-08-01T04:22:50.477Z,14.69
2022-08-01T04:23:51.715Z,14.71
2022-08-01T04:24:56.316Z,14.73
2022-08-01T04:25:50.467Z,14.72
2022-08-01T04:26:50.500Z,14.71
2022-08-01T04:27:51.974Z,14.75
2022-08-01T04:28:50.482Z,14.74
2022-08-01T04:29:50.486Z,14.73
2022-08-01T04:30:50.465Z,14.74
2022-08-01T04:31:50.491Z,14.66
2022-08-01T04:32:50.461Z,14.66
2022-08-01T04:33:50.475Z,14.65
2022-08-01T04:34:50.467Z,14.66
2022-08-01T04:36:02.428Z,14.65
2022-08-01T04:36:50.496Z,14.7
2022-08-01T04:37:50.470Z,14.7
2022-08-01T04:38:50.472Z,14.75
2022-08-01T04:39:51.378Z,14.81
2022-08-01T04:40:50.478Z,14.83
2022-08-01T04:41:50.481Z,14.82
2022-08-01T04:42:50.468Z,14.84
2022-08-01T04:43:50.481Z,14.84
2022-08-01T04:44:50.493Z,14.94
2022-08-01T04:45:50.488Z,14.98
2022-08-01T04:46:50.479Z,14.96
2022-08-01T04:47:50.474Z,14.92
2022-08-01T04:48:50.555Z,14.94
2022-08-01T04:49:50.498Z,14.97
2022-08-01T04:50:50.583Z,15
2022-08-01T04:51:50.489Z,14.99
2022-08-01T04:52:50.475Z,14.99
2022-08-01T04:53:50.480Z,15.04
2022-08-01T04:54:50.471Z,15.06
2022-08-01T04:55:50.474Z,15.06
2022-08-01T04:56:51.472Z,15.03
2022-08-01T04:57:50.469Z,15.08
2022-08-01T04:58:50.469Z,15.05
2022-08-01T04:59:50.494Z,15.05
2022-08-01T05:00:50.518Z,15.03
2022-08-01T05:01:50.612Z,15.06
2022-08-01T05:02:50.479Z,15.1
2022-08-01T05:03:50.459Z,15.14
2022-08-01T05:04:50.479Z,15.31
2022-08-01T05:05:50.462Z,15.35
2022-08-01T05:06:50.476Z,15.36
2022-08-01T05:07:50.460Z,15.33
2022-08-01T05:08:50.463Z,15.33
2022-08-01T05:09:50.462Z,15.4
2022-08-01T05:10:50.476Z,15.52
2022-08-01T05:11:50.508Z,15.61
2022-08-01T05:12:50.490Z,15.62
2022-08-01T05:13:50.496Z,15.7
2022-08-01T05:14:50.504Z,15.82
2022-08-01T05:15:50.493Z,15.78
2022-08-01T05:16:50.509Z,15.75
2022-08-01T05:17:50.507Z,15.67
2022-08-01T05:18:50.499Z,15.78
2022-08-01T05:19:50.502Z,15.79
2022-08-01T05:20:50.472Z,15.75
2022-08-01T05:21:50.473Z,15.71
2022-08-01T05:22:50.447Z,15.7
2022-08-01T05:23:50.447Z,15.68
2022-08-01T05:24:50.446Z,15.67
2022-08-01T05:25:57.743Z,15.66
2022-08-01T05:26:50.488Z,15.63
2022-08-01T05:27:50.926Z,15.54
2022-08-01T05:28:50.480Z,15.57
2022-08-01T05:29:50.486Z,15.69
2022-08-01T05:30:50.477Z,15.68
2022-08-01T05:31:50.491Z,15.75
2022-08-01T05:32:50.483Z,15.82
2022-08-01T05:33:50.475Z,15.88
2022-08-01T05:34:50.475Z,15.84
2022-08-01T05:35:50.474Z,15.85
2022-08-01T05:36:54.042Z,15.87
2022-08-01T05:37:50.456Z,15.89
2022-08-01T05:38:50.460Z,15.96
2022-08-01T05:39:50.461Z,16.02
2022-08-01T05:40:50.461Z,16.09
2022-08-01T05:41:50.477Z,16.13
2022-08-01T05:42:50.472Z,16.16
2022-08-01T05:43:50.479Z,16.18
2022-08-01T05:44:50.494Z,16.23
2022-08-01T05:45:50.462Z,16.28
2022-08-01T05:46:50.481Z,16.29
2022-08-01T05:47:50.464Z,16.25
2022-08-01T05:48:50.534Z,16.22
2022-08-01T05:49:50.465Z,16.13
2022-08-01T05:50:50.461Z,16.16
2022-08-01T05:51:50.491Z,16.2
2022-08-01T05:52:50.469Z,16.15
2022-08-01T05:53:50.462Z,16.15
2022-08-01T05:54:50.467Z,16.12
2022-08-01T05:55:50.462Z,15.99
2022-08-01T05:56:50.480Z,16.06
2022-08-01T05:57:50.466Z,16.09
2022-08-01T05:58:50.470Z,16.21
2022-08-01T05:59:50.481Z,16.17
2022-08-01T06:00:50.469Z,16.13
2022-08-01T06:01:50.548Z,16.23
2022-08-01T06:02:50.463Z,16.18
2022-08-01T06:03:50.462Z,16.2
2022-08-01T06:04:50.474Z,16.27
2022-08-01T06:05:50.466Z,16.27
2022-08-01T06:06:50.483Z,16.43
2022-08-01T06:07:50.470Z,16.4
2022-08-01T06:08:51.528Z,16.42
2022-08-01T06:09:50.473Z,16.09
2022-08-01T06:10:50.474Z,16.09
2022-08-01T06:11:50.484Z,16.42
2022-08-01T06:12:50.466Z,16.43
2022-08-01T06:13:50.475Z,16.48
2022-08-01T06:14:50.511Z,16.5
2022-08-01T06:15:50.482Z,15.96
2022-08-01T06:16:50.484Z,15.96
2022-08-01T06:17:50.491Z,16.05
2022-08-01T06:18:53.798Z,16.07
2022-08-01T06:19:50.474Z,16.23
2022-08-01T06:20:50.475Z,16.36
2022-08-01T06:21:50.479Z,16.37
2022-08-01T06:22:52.382Z,16.21
2022-08-01T06:23:50.475Z,16.22
2022-08-01T06:24:50.471Z,16.25
2022-08-01T06:25:50.468Z,16.28
2022-08-01T06:26:50.489Z,16.39
2022-08-01T06:27:50.485Z,16.51
2022-08-01T06:28:50.486Z,16.68
2022-08-01T06:29:54.238Z,16.4
2022-08-01T06:30:50.479Z,16.46
2022-08-01T06:31:50.490Z,16.67
2022-08-01T06:32:50.484Z,16.61
2022-08-01T06:33:50.466Z,16.24
2022-08-01T06:34:50.487Z,16.38
2022-08-01T06:35:50.476Z,16.36
2022-08-01T06:36:50.487Z,16.06
2022-08-01T06:37:50.479Z,15.9
2022-08-01T06:38:50.475Z,15.63
2022-08-01T06:39:50.873Z,15.77
2022-08-01T06:40:50.473Z,15.8
2022-08-01T06:41:50.487Z,15.7
2022-08-01T06:42:50.476Z,15.75
2022-08-01T06:43:50.467Z,15.7
2022-08-01T06:44:50.511Z,15.65
2022-08-01T06:45:50.477Z,15.71
2022-08-01T06:46:50.487Z,15.52
2022-08-01T06:47:50.773Z,15.5
2022-08-01T06:48:50.580Z,15.56
2022-08-01T06:49:50.482Z,15.46
2022-08-01T06:50:50.487Z,15.39
2022-08-01T06:51:50.509Z,15.34
2022-08-01T06:52:50.492Z,15.44
2022-08-01T06:53:50.485Z,15.53
2022-08-01T06:54:50.501Z,15.7
2022-08-01T06:55:50.489Z,15.49
2022-08-01T06:56:50.484Z,15.55
2022-08-01T06:57:50.481Z,15.6
2022-08-01T06:58:50.469Z,15.51
2022-08-01T06:59:51.983Z,15.5
2022-08-01T07:00:54.722Z,15.42
2022-08-01T07:01:50.471Z,15.51
2022-08-01T07:02:50.457Z,15.56
2022-08-01T07:03:54.420Z,15.58
2022-08-01T07:04:50.471Z,15.73
2022-08-01T07:05:50.476Z,16.58
2022-08-01T07:06:50.499Z,15.71
2022-08-01T07:07:50.480Z,15.78
2022-08-01T07:08:50.484Z,15.78
2022-08-01T07:09:50.479Z,15.76
2022-08-01T07:10:50.467Z,15.78
2022-08-01T07:11:50.499Z,15.88
2022-08-01T07:12:50.466Z,15.98
2022-08-01T07:13:50.473Z,17.14
2022-08-01T07:14:50.491Z,16.07
2022-08-01T07:15:50.479Z,16.09
2022-08-01T07:16:50.488Z,16.22
2022-08-01T07:17:50.480Z,16.27
2022-08-01T07:18:50.475Z,16.28
2022-08-01T07:19:50.472Z,16.39
2022-08-01T07:20:52.854Z,16.5
2022-08-01T07:21:50.502Z,16.61
2022-08-01T07:22:50.481Z,16.61
2022-08-01T07:23:50.491Z,16.65
2022-08-01T07:24:50.478Z,16.67
2022-08-01T07:25:52.724Z,16.63
2022-08-01T07:26:53.034Z,16.78
2022-08-01T07:27:50.473Z,16.82
2022-08-01T07:28:50.493Z,16.76
2022-08-01T07:29:50.492Z,16.89
2022-08-01T07:30:50.468Z,16.96
2022-08-01T07:31:50.483Z,17.05
2022-08-01T07:32:50.467Z,17
2022-08-01T07:33:50.478Z,17.06
2022-08-01T07:34:50.476Z,17.11
2022-08-01T07:35:50.501Z,16.96
2022-08-01T07:36:50.511Z,16.93
2022-08-01T07:37:50.491Z,17.11
2022-08-01T07:38:50.482Z,17.15
2022-08-01T07:39:50.476Z,17.25
2022-08-01T07:40:50.486Z,17.13
2022-08-01T07:42:06.274Z,17.17
2022-08-01T07:42:50.472Z,17.15
2022-08-01T07:43:56.457Z,17.19
2022-08-01T07:44:50.498Z,17.23
2022-08-01T07:45:50.478Z,17.09
2022-08-01T07:46:50.479Z,17.11
2022-08-01T07:47:50.462Z,17.11
2022-08-01T07:48:50.526Z,17.2
2022-08-01T07:49:50.471Z,17.3
2022-08-01T07:50:50.487Z,17.28
2022-08-01T07:52:03.989Z,17.24
2022-08-01T07:52:50.479Z,17.04
2022-08-01T07:53:50.471Z,16.96
2022-08-01T07:54:52.249Z,16.95
2022-08-01T07:55:50.488Z,17
2022-08-01T07:56:50.485Z,16.95
2022-08-01T07:57:50.472Z,17.08
2022-08-01T07:58:50.466Z,16.94
2022-08-01T07:59:50.490Z,16.83
2022-08-01T08:00:50.469Z,18.22
2022-08-01T08:01:50.563Z,16.9
2022-08-01T08:02:50.470Z,16.9
2022-08-01T08:03:50.468Z,17.04
2022-08-01T08:04:50.472Z,17.12
2022-08-01T08:05:57.950Z,17.04
2022-08-01T08:06:50.486Z,17.13
2022-08-01T08:07:50.477Z,17.17
2022-08-01T08:08:50.482Z,17.05
2022-08-01T08:09:51.099Z,17.1
2022-08-01T08:10:50.529Z,17.13
2022-08-01T08:11:50.431Z,17.2
2022-08-01T08:12:50.411Z,17.18
2022-08-01T08:13:50.398Z,17.1
2022-08-01T08:14:50.410Z,17.25
2022-08-01T08:15:50.421Z,17.23
2022-08-01T08:16:50.413Z,17.31
2022-08-01T08:17:55.155Z,17.33
2022-08-01T08:18:50.372Z,17.22
2022-08-01T08:19:50.499Z,17.15
2022-08-01T08:20:50.502Z,17.1
2022-08-01T08:21:50.521Z,17.03
2022-08-01T08:22:50.515Z,16.3
2022-08-01T08:23:50.497Z,16.95
2022-08-01T08:24:50.494Z,16.96
2022-08-01T08:25:50.509Z,16.92
2022-08-01T08:26:52.270Z,17.07
2022-08-01T08:27:50.467Z,17.19
2022-08-01T08:28:50.471Z,17.16
2022-08-01T08:29:50.482Z,17.09
2022-08-01T08:30:50.454Z,16.99
2022-08-01T08:31:52.447Z,17.03
2022-08-01T08:32:50.451Z,17.16
2022-08-01T08:33:50.446Z,17.06
2022-08-01T08:34:50.453Z,17.1
2022-08-01T08:35:53.763Z,17.17
2022-08-01T08:36:50.480Z,17.08
2022-08-01T08:37:50.565Z,17
2022-08-01T08:38:50.474Z,17.03
2022-08-01T08:39:50.477Z,17.02
2022-08-01T08:40:50.475Z,17.03
2022-08-01T08:41:50.497Z,16.95
2022-08-01T08:42:50.497Z,16.96
2022-08-01T08:43:50.471Z,17.09
2022-08-01T08:44:50.507Z,17.07
2022-08-01T08:45:59.880Z,17.06
2022-08-01T08:46:50.473Z,17.09
2022-08-01T08:47:50.471Z,17.06
2022-08-01T08:48:50.506Z,17.16
2022-08-01T08:49:50.472Z,17.22
2022-08-01T08:50:50.472Z,17.27
2022-08-01T08:51:50.491Z,17.25
2022-08-01T08:52:50.492Z,17.28
2022-08-01T08:53:50.474Z,17.24
2022-08-01T08:54:50.486Z,17.27
2022-08-01T08:55:56.311Z,17.34
2022-08-01T08:56:50.505Z,17.34
2022-08-01T08:57:50.490Z,17.32
2022-08-01T08:58:50.479Z,17.41
2022-08-01T08:59:50.475Z,17.32
2022-08-01T09:00:50.473Z,17.56
2022-08-01T09:01:50.489Z,17.56
2022-08-01T09:02:50.589Z,17.47
2022-08-01T09:03:50.487Z,17.51
2022-08-01T09:04:50.474Z,17.5
2022-08-01T09:05:50.473Z,17.56
2022-08-01T09:06:50.497Z,17.43
2022-08-01T09:07:50.487Z,17.59
2022-08-01T09:08:50.473Z,17.72
2022-08-01T09:09:51.389Z,17.65
2022-08-01T09:10:50.477Z,17.64
2022-08-01T09:11:57.215Z,17.76
2022-08-01T09:12:50.481Z,17.37
2022-08-01T09:13:50.474Z,17.46
2022-08-01T09:14:50.497Z,17.5
2022-08-01T09:15:50.485Z,17.59
2022-08-01T09:16:50.492Z,17.55
2022-08-01T09:17:50.507Z,17.48
2022-08-01T09:18:53.774Z,17.56
2022-08-01T09:19:50.485Z,17.51
2022-08-01T09:20:50.489Z,17.61
2022-08-01T09:21:50.483Z,17.8
2022-08-01T09:22:50.481Z,17.89
2022-08-01T09:23:53.583Z,17.82
2022-08-01T09:24:50.462Z,17.72
2022-08-01T09:25:50.496Z,17.72
2022-08-01T09:26:50.493Z,17.57
2022-08-01T09:27:50.487Z,17.57
2022-08-01T09:28:50.471Z,17.59
2022-08-01T09:30:01.656Z,17.74
2022-08-01T09:30:50.477Z,17.63
2022-08-01T09:31:50.497Z,17.55
2022-08-01T09:32:50.487Z,18.7
2022-08-01T09:33:50.688Z,17.52
2022-08-01T09:34:50.471Z,17.49
2022-08-01T09:35:50.475Z,17.43
2022-08-01T09:36:50.481Z,17.56
2022-08-01T09:37:50.479Z,17.58
2022-08-01T09:38:51.066Z,17.58
2022-08-01T09:39:50.484Z,17.73
2022-08-01T09:40:50.478Z,17.85
2022-08-01T09:41:50.479Z,17.9
2022-08-01T09:42:50.467Z,17.91
2022-08-01T09:43:50.482Z,17.91
2022-08-01T09:44:54.903Z,17.81
2022-08-01T09:45:53.426Z,17.87
2022-08-01T09:46:50.491Z,17.87
2022-08-01T09:47:50.469Z,17.87
2022-08-01T09:48:50.506Z,17.9
2022-08-01T09:49:52.135Z,18.01
2022-08-01T09:50:50.467Z,18
2022-08-01T09:51:58.958Z,18.04
2022-08-01T09:52:50.482Z,18.04
2022-08-01T09:53:52.655Z,18.02
2022-08-01T09:54:50.471Z,17.91
2022-08-01T09:55:50.471Z,19
2022-08-01T09:56:50.559Z,17.74
2022-08-01T09:57:50.475Z,17.89
2022-08-01T09:58:57.844Z,18.15
2022-08-01T09:59:58.440Z,18.15
2022-08-01T10:00:50.470Z,18.27
2022-08-01T10:01:50.476Z,18.27
2022-08-01T10:02:50.465Z,18.22
2022-08-01T10:03:50.522Z,18.35
2022-08-01T10:04:50.686Z,18.45
2022-08-01T10:05:50.467Z,18.49
2022-08-01T10:06:50.856Z,18.49
2022-08-01T10:07:50.462Z,18.47
2022-08-01T10:08:50.466Z,18.47
2022-08-01T10:09:50.481Z,18.36
2022-08-01T10:10:50.466Z,17.93
2022-08-01T10:11:50.472Z,17.87
2022-08-01T10:12:50.468Z,18.05
2022-08-01T10:13:50.471Z,18.05
2022-08-01T10:14:50.639Z,18.04
2022-08-01T10:15:50.468Z,17.92
2022-08-01T10:16:53.724Z,17.94
2022-08-01T10:17:51.568Z,17.94
2022-08-01T10:18:50.478Z,17.91
2022-08-01T10:19:50.465Z,17.99
2022-08-01T10:20:50.481Z,18.03
2022-08-01T10:21:56.672Z,17.88
2022-08-01T10:22:50.466Z,17.93
2022-08-01T10:23:50.483Z,17.97
2022-08-01T10:24:50.704Z,17.87
2022-08-01T10:25:50.485Z,17.69
2022-08-01T10:26:50.497Z,17.61
2022-08-01T10:27:50.477Z,18.56
2022-08-01T10:28:50.487Z,17.81
2022-08-01T10:30:05.156Z,17.92
2022-08-01T10:30:50.490Z,17.78
2022-08-01T10:31:50.724Z,17.73
2022-08-01T10:32:51.202Z,18.84
2022-08-01T10:33:53.359Z,17.8
2022-08-01T10:34:50.482Z,17.8
2022-08-01T10:35:50.471Z,17.69
2022-08-01T10:36:50.494Z,17.77
2022-08-01T10:37:52.380Z,17.81
2022-08-01T10:38:50.475Z,17.92
2022-08-01T10:39:50.473Z,17.92
2022-08-01T10:40:50.478Z,17.89
2022-08-01T10:41:50.493Z,17.95
2022-08-01T10:42:50.470Z,17.94
2022-08-01T10:43:50.472Z,17.8
2022-08-01T10:44:50.496Z,17.76
2022-08-01T10:45:50.482Z,17.84
2022-08-01T10:46:50.488Z,17.85
2022-08-01T10:47:51.188Z,17.6
2022-08-01T10:48:52.112Z,18.63
2022-08-01T10:49:50.467Z,17.84
2022-08-01T10:50:50.469Z,17.7
2022-08-01T10:51:52.887Z,17.73
2022-08-01T10:52:50.471Z,17.64
2022-08-01T10:53:50.471Z,17.68
2022-08-01T10:54:52.703Z,17.6
2022-08-01T10:55:50.465Z,17.68
2022-08-01T10:56:50.490Z,17.72
2022-08-01T10:57:52.979Z,17.72
2022-08-01T10:58:50.465Z,17.88
2022-08-01T11:00:01.521Z,17.9
2022-08-01T11:00:50.467Z,17.96
2022-08-01T11:01:50.523Z,17.8
2022-08-01T11:02:50.468Z,17.56
2022-08-01T11:03:57.485Z,17.69
2022-08-01T11:04:50.474Z,17.87
2022-08-01T11:05:50.509Z,18.16
2022-08-01T11:06:50.495Z,19.17
2022-08-01T11:07:50.473Z,18.02
2022-08-01T11:08:50.492Z,18.11
2022-08-01T11:09:52.010Z,18.16
2022-08-01T11:10:50.473Z,18.19
2022-08-01T11:11:50.490Z,18.08
2022-08-01T11:12:50.488Z,18.17
2022-08-01T11:13:50.473Z,18.11
2022-08-01T11:14:55.635Z,17.96
2022-08-01T11:15:50.958Z,18.01
2022-08-01T11:16:50.514Z,17.47
2022-08-01T11:17:50.481Z,17.6
2022-08-01T11:18:50.474Z,17.82
2022-08-01T11:19:50.472Z,17.67
2022-08-01T11:20:50.485Z,17.74
2022-08-01T11:21:57.178Z,17.71
2022-08-01T11:22:50.467Z,17.48
2022-08-01T11:23:50.472Z,17.51
2022-08-01T11:24:50.878Z,17.71
2022-08-01T11:26:03.994Z,17.75
2022-08-01T11:26:50.482Z,17.77
2022-08-01T11:27:50.479Z,17.79
2022-08-01T11:29:17.996Z,17.9
2022-08-01T11:29:50.495Z,17.94
2022-08-01T11:30:50.490Z,17.69
2022-08-01T11:31:50.491Z,17.76
2022-08-01T11:33:05.867Z,17.73
2022-08-01T11:33:50.469Z,17.86
2022-08-01T11:34:50.470Z,17.67
2022-08-01T11:35:50.493Z,17.75
2022-08-01T11:36:59.249Z,17.88
2022-08-01T11:37:50.471Z,17.56
2022-08-01T11:38:50.479Z,17.45
2022-08-01T11:39:50.478Z,17.39
2022-08-01T11:40:50.466Z,17.59
2022-08-01T11:41:50.485Z,17.87
2022-08-01T11:42:50.480Z,17.8
2022-08-01T11:43:50.470Z,17.55
2022-08-01T11:44:50.678Z,17.54
2022-08-01T11:45:50.506Z,17.7
2022-08-01T11:46:51.104Z,17.62
2022-08-01T11:47:50.494Z,17.74
2022-08-01T11:48:50.528Z,17.71
2022-08-01T11:49:50.495Z,17.77
2022-08-01T11:50:50.473Z,18.05
2022-08-01T11:51:50.497Z,17.97
2022-08-01T11:52:50.474Z,17.92
2022-08-01T11:53:50.474Z,17.97
2022-08-01T11:54:50.500Z,17.82
2022-08-01T11:55:51.403Z,17.88
2022-08-01T11:56:50.490Z,17.77
2022-08-01T11:57:50.485Z,17.12
2022-08-01T11:58:50.492Z,17.4
2022-08-01T12:00:02.483Z,17.47
2022-08-01T12:00:50.474Z,17.36
2022-08-01T12:01:50.484Z,17.41
2022-08-01T12:02:50.544Z,17.36
2022-08-01T12:03:50.471Z,17.34
2022-08-01T12:04:50.481Z,17.44
2022-08-01T12:05:50.482Z,17.38
2022-08-01T12:06:51.001Z,17.46
2022-08-01T12:07:50.471Z,17.49
2022-08-01T12:08:50.470Z,17.58
2022-08-01T12:09:50.468Z,17.6
2022-08-01T12:10:50.469Z,17.52
2022-08-01T12:11:50.503Z,17.72
2022-08-01T12:12:50.479Z,17.73
2022-08-01T12:13:50.479Z,17.7
2022-08-01T12:14:50.499Z,17.67
2022-08-01T12:15:53.531Z,17.8
2022-08-01T12:16:50.492Z,17.78
2022-08-01T12:17:58.840Z,17.65
2022-08-01T12:18:50.475Z,17.54
2022-08-01T12:19:50.477Z,17.73
2022-08-01T12:20:56.587Z,17.62
2022-08-01T12:21:54.491Z,17.75
2022-08-01T12:22:50.474Z,17.56
2022-08-01T12:23:50.465Z,17.71
2022-08-01T12:24:50.464Z,17.54
2022-08-01T12:25:50.462Z,17.69
2022-08-01T12:26:50.490Z,17.89
2022-08-01T12:27:55.754Z,17.7
2022-08-01T12:28:50.497Z,17.42
2022-08-01T12:29:50.485Z,17.48
2022-08-01T12:30:50.507Z,17.56
2022-08-01T12:31:50.507Z,17.54
2022-08-01T12:32:50.494Z,17.61
2022-08-01T12:33:50.480Z,17.79
2022-08-01T12:34:50.474Z,17.62
2022-08-01T12:35:50.494Z,17.72
2022-08-01T12:36:50.491Z,17.97
2022-08-01T12:37:50.510Z,17.83
2022-08-01T12:38:50.460Z,17.94
2022-08-01T12:39:50.462Z,17.88
2022-08-01T12:40:52.968Z,17.64
2022-08-01T12:41:50.479Z,17.72
2022-08-01T12:42:50.466Z,17.87
2022-08-01T12:43:50.474Z,17.78
2022-08-01T12:44:50.487Z,17.9
2022-08-01T12:45:54.474Z,18.06
2022-08-01T12:46:50.490Z,18.18
2022-08-01T12:47:50.473Z,18.12
2022-08-01T12:48:50.516Z,18.15
2022-08-01T12:49:50.464Z,18.17
2022-08-01T12:50:50.469Z,18.35
2022-08-01T12:51:57.105Z,18.37
2022-08-01T12:52:50.481Z,18.55
2022-08-01T12:53:50.477Z,18.31
2022-08-01T12:54:50.510Z,18.24
2022-08-01T12:55:59.039Z,18.15